Airport View

Enter AWOS ICAO identifier for current METAR.

ex. KFNL

KBNW 192015Z AUTO 13006KT 10SM SCT029 SCT034 26/21 A3001 RMK AO2

19 Aug 2019 20:18

Frequency: 120.925

Phone: 515-432-9042

Other Area AWOS: KAMW - KPRO - KEBS - KIKV

TAF KDSM 191720Z 1918/2018 10005KT P6SM SCT028 FM200900 13005KT P6SM VCTS BKN035CB FM201300 15006KT P6SM BKN120 FM201500 17007KT P6SM SCT200